createdAt,value
2018-12-23T00:00:17.298Z,93.00
2018-12-23T00:02:46.184Z,93.40
2018-12-23T00:05:29.859Z,92.80
2018-12-23T00:08:06.065Z,92.90
2018-12-23T00:10:58.633Z,92.40
2018-12-23T00:13:31.681Z,92.60
2018-12-23T00:16:15.535Z,92.80
2018-12-23T00:18:45.037Z,92.70
2018-12-23T00:21:13.729Z,92.10
2018-12-23T00:23:42.423Z,92.30
2018-12-23T00:26:11.390Z,92.20
2018-12-23T00:28:40.151Z,92.40
2018-12-23T00:31:09.017Z,92.00
2018-12-23T00:33:37.957Z,92.20
2018-12-23T00:36:15.369Z,91.60
2018-12-23T00:38:44.603Z,91.50
2018-12-23T00:41:13.297Z,91.80
2018-12-23T00:43:54.663Z,91.60
2018-12-23T00:46:38.483Z,91.80
2018-12-23T00:49:15.233Z,91.50
2018-12-23T00:51:51.145Z,91.30
2018-12-23T00:54:27.514Z,91.60
2018-12-23T00:57:00.107Z,90.90
2018-12-23T01:02:09.795Z,90.80
2018-12-23T01:04:38.452Z,90.80
2018-12-23T01:07:07.146Z,91.60
2018-12-23T01:09:36.576Z,91.20
2018-12-23T01:12:05.295Z,91.30
2018-12-23T01:14:33.998Z,91.60
2018-12-23T01:17:02.723Z,91.10
2018-12-23T01:19:34.512Z,90.80
2018-12-23T01:22:04.658Z,90.90
2018-12-23T01:24:41.305Z,90.80
2018-12-23T01:27:17.525Z,90.60
2018-12-23T01:29:53.417Z,90.60
2018-12-23T01:32:29.898Z,90.20
2018-12-23T01:35:06.247Z,90.50
2018-12-23T01:37:34.983Z,90.30
2018-12-23T01:40:03.871Z,90.90
2018-12-23T01:42:32.450Z,90.50
2018-12-23T01:45:01.124Z,90.70
2018-12-23T01:47:44.830Z,90.00
2018-12-23T01:50:14.622Z,90.00
2018-12-23T01:52:47.358Z,90.10
2018-12-23T01:55:23.836Z,89.70
2018-12-23T01:57:56.553Z,89.80
2018-12-23T02:10:37.280Z,89.00
2018-12-23T02:13:06.116Z,89.00
2018-12-23T02:15:34.979Z,88.10
2018-12-23T02:18:04.890Z,87.30
2018-12-23T02:20:33.536Z,88.40
2018-12-23T02:23:02.206Z,87.90
2018-12-23T02:25:31.705Z,87.80
2018-12-23T02:28:00.485Z,89.00
2018-12-23T02:30:29.153Z,87.70
2018-12-23T02:32:57.958Z,87.50
2018-12-23T02:35:27.230Z,87.80
2018-12-23T02:37:57.163Z,88.40
2018-12-23T02:40:25.890Z,88.30
2018-12-23T02:43:01.677Z,87.70
2018-12-23T02:45:30.340Z,87.60
2018-12-23T02:48:02.228Z,87.20
2018-12-23T02:50:34.234Z,86.50
2018-12-23T02:53:11.008Z,87.70
2018-12-23T02:55:43.309Z,87.40
2018-12-23T02:58:15.083Z,86.90
2018-12-23T03:00:57.749Z,87.80
2018-12-23T03:03:34.221Z,86.90
2018-12-23T03:06:10.211Z,87.20
2018-12-23T03:13:46.308Z,87.90
2018-12-23T03:16:14.958Z,88.00
2018-12-23T03:18:43.570Z,88.90
2018-12-23T03:21:12.423Z,88.20
2018-12-23T03:23:44.925Z,87.00
2018-12-23T03:26:14.190Z,87.60
2018-12-23T03:28:46.252Z,88.50
2018-12-23T03:31:15.621Z,88.20
2018-12-23T03:34:01.720Z,87.00
2018-12-23T03:36:37.494Z,88.10
2018-12-23T03:39:10.145Z,87.90
2018-12-23T03:41:38.910Z,88.30
2018-12-23T03:44:22.346Z,88.10
2018-12-23T03:46:53.575Z,87.30
2018-12-23T03:49:23.602Z,87.30
2018-12-23T03:51:52.236Z,88.00
2018-12-23T03:54:28.605Z,87.20
2018-12-23T03:57:12.404Z,88.10
2018-12-23T03:59:41.306Z,88.30
2018-12-23T04:02:17.913Z,87.80
2018-12-23T04:04:49.616Z,88.40
2018-12-23T04:07:25.739Z,88.20
2018-12-23T04:09:54.402Z,88.60
2018-12-23T04:12:23.014Z,87.70
2018-12-23T04:14:52.223Z,87.70
2018-12-23T04:17:21.072Z,88.40
2018-12-23T04:19:49.729Z,87.80
2018-12-23T04:22:18.798Z,87.80
2018-12-23T04:24:49.922Z,88.00
2018-12-23T04:27:18.666Z,87.80
2018-12-23T04:29:47.515Z,88.70
2018-12-23T04:32:16.374Z,88.10
2018-12-23T04:34:45.042Z,88.40
2018-12-23T04:37:14.187Z,88.30
2018-12-23T04:39:43.090Z,88.60
2018-12-23T04:42:11.860Z,88.10
2018-12-23T04:44:41.248Z,87.80
2018-12-23T04:47:09.961Z,87.60
2018-12-23T04:49:38.717Z,87.80
2018-12-23T04:52:07.516Z,88.30
2018-12-23T04:54:36.296Z,88.10
2018-12-23T04:57:04.969Z,88.50
2018-12-23T04:59:40.929Z,88.20
2018-12-23T05:02:17.867Z,88.50
2018-12-23T05:04:46.546Z,87.80
2018-12-23T05:07:18.885Z,88.30
2018-12-23T05:09:55.557Z,87.70
2018-12-23T05:12:31.750Z,88.00
2018-12-23T05:15:08.137Z,88.20
2018-12-23T05:17:40.787Z,88.30
2018-12-23T05:20:09.737Z,88.60
2018-12-23T05:22:38.692Z,88.80
2018-12-23T05:25:07.492Z,88.50
2018-12-23T05:27:37.827Z,88.50
2018-12-23T05:30:06.561Z,88.70
2018-12-23T05:32:42.942Z,89.10
2018-12-23T05:35:15.627Z,89.10
2018-12-23T05:37:52.311Z,89.50
2018-12-23T05:40:21.048Z,89.30
2018-12-23T05:42:57.407Z,89.30
2018-12-23T05:45:26.125Z,89.00
2018-12-23T05:47:54.837Z,89.20
2018-12-23T05:50:26.601Z,89.10
2018-12-23T05:52:55.332Z,89.80
2018-12-23T05:55:25.837Z,89.40
2018-12-23T05:57:54.975Z,89.50
2018-12-23T06:00:23.715Z,90.00
2018-12-23T06:02:53.115Z,89.90
2018-12-23T06:05:22.620Z,90.00
2018-12-23T06:07:59.427Z,89.50
2018-12-23T06:10:28.219Z,89.10
2018-12-23T06:12:56.993Z,89.20
2018-12-23T06:15:25.647Z,89.50
2018-12-23T06:17:54.326Z,89.40
2018-12-23T06:20:23.116Z,88.90
2018-12-23T06:22:51.877Z,89.10
2018-12-23T06:25:21.216Z,89.10
2018-12-23T06:27:50.177Z,89.00
2018-12-23T06:30:18.832Z,89.20
2018-12-23T06:32:48.601Z,89.20
2018-12-23T06:35:17.353Z,89.20
2018-12-23T06:37:46.093Z,88.40
2018-12-23T06:40:15.270Z,88.50
2018-12-23T06:42:47.387Z,89.20
2018-12-23T06:45:16.054Z,88.50
2018-12-23T06:47:44.662Z,89.30
2018-12-23T06:50:13.289Z,88.30
2018-12-23T06:52:41.943Z,89.20
2018-12-23T06:55:10.661Z,88.30
2018-12-23T06:57:40.435Z,89.40
2018-12-23T07:00:09.771Z,89.40
2018-12-23T07:02:38.376Z,89.30
2018-12-23T07:05:07.071Z,89.00
2018-12-23T07:07:35.802Z,89.40
2018-12-23T07:10:05.395Z,89.30
2018-12-23T07:12:34.209Z,89.10
2018-12-23T07:15:02.892Z,88.80
2018-12-23T07:17:31.691Z,89.20
2018-12-23T07:20:00.615Z,89.00
2018-12-23T07:22:29.362Z,89.20
2018-12-23T07:24:58.094Z,89.40
2018-12-23T07:27:26.732Z,89.20
2018-12-23T07:29:56.380Z,89.70
2018-12-23T07:32:25.073Z,89.10
2018-12-23T07:34:54.455Z,88.50
2018-12-23T07:37:27.572Z,88.60
2018-12-23T07:39:54.736Z,88.80
2018-12-23T07:42:23.528Z,88.60
2018-12-23T07:44:53.065Z,89.20
2018-12-23T07:47:22.200Z,89.00
2018-12-23T07:49:50.905Z,88.30
2018-12-23T07:52:19.572Z,87.90
2018-12-23T07:54:48.237Z,88.30
2018-12-23T07:57:16.994Z,88.10
2018-12-23T07:59:45.659Z,88.00
2018-12-23T08:02:27.562Z,88.30
2018-12-23T08:04:56.297Z,88.60
2018-12-23T08:07:24.993Z,88.10
2018-12-23T08:09:53.664Z,88.60
2018-12-23T08:12:22.383Z,88.70
2018-12-23T08:14:51.222Z,88.60
2018-12-23T08:17:30.402Z,88.60
2018-12-23T08:20:12.058Z,88.30
2018-12-23T08:22:40.845Z,88.60
2018-12-23T08:25:09.499Z,88.50
2018-12-23T08:27:38.208Z,89.00
2018-12-23T08:30:07.173Z,89.00
2018-12-23T08:32:35.831Z,89.50
2018-12-23T08:35:04.704Z,89.50
2018-12-23T08:37:33.388Z,90.00
2018-12-23T08:40:02.029Z,89.00
2018-12-23T08:42:30.709Z,89.30
2018-12-23T08:44:59.474Z,88.80
2018-12-23T08:47:28.114Z,89.00
2018-12-23T08:49:57.594Z,89.40
2018-12-23T08:52:26.262Z,89.10
2018-12-23T08:54:55.743Z,88.80
2018-12-23T08:57:24.469Z,89.50
2018-12-23T08:59:53.250Z,89.10
2018-12-23T09:02:22.018Z,89.00
2018-12-23T09:04:50.784Z,88.50
2018-12-23T09:07:19.466Z,88.60
2018-12-23T09:09:48.142Z,88.40
2018-12-23T09:12:16.731Z,88.50
2018-12-23T09:14:45.421Z,88.80
2018-12-23T09:17:14.051Z,89.40
2018-12-23T09:19:42.666Z,89.10
2018-12-23T09:22:11.375Z,88.60
2018-12-23T09:24:40.068Z,88.50
2018-12-23T09:27:08.731Z,89.00
2018-12-23T09:29:37.347Z,89.20
2018-12-23T09:32:06.100Z,89.10
2018-12-23T09:34:34.863Z,88.60
2018-12-23T09:37:03.612Z,88.70
2018-12-23T09:39:32.293Z,89.00
2018-12-23T09:42:01.395Z,88.30
2018-12-23T09:44:30.017Z,88.10
2018-12-23T09:46:58.730Z,87.60
2018-12-23T09:49:27.315Z,88.00
2018-12-23T09:51:55.930Z,88.00
2018-12-23T09:54:24.625Z,87.40
2018-12-23T09:56:53.296Z,87.10
2018-12-23T09:59:21.994Z,86.60
2018-12-23T10:01:50.681Z,86.70
2018-12-23T10:04:19.393Z,86.40
2018-12-23T10:06:48.105Z,85.90
2018-12-23T10:09:16.715Z,86.70
2018-12-23T10:11:45.358Z,86.80
2018-12-23T10:14:13.997Z,86.70
2018-12-23T10:16:42.581Z,85.90
2018-12-23T10:19:11.219Z,85.40
2018-12-23T10:21:39.846Z,86.20
2018-12-23T10:24:08.603Z,86.50
2018-12-23T10:26:37.297Z,85.20
2018-12-23T10:29:05.979Z,85.10
2018-12-23T10:31:34.627Z,84.90
2018-12-23T10:34:03.361Z,84.70
2018-12-23T10:36:32.014Z,85.10
2018-12-23T10:39:00.740Z,84.70
2018-12-23T10:41:29.747Z,84.10
2018-12-23T10:43:58.377Z,83.30
2018-12-23T10:46:27.047Z,83.00
2018-12-23T10:48:55.666Z,83.30
2018-12-23T10:51:24.370Z,83.60
2018-12-23T10:53:53.045Z,83.30
2018-12-23T10:56:21.753Z,82.40
2018-12-23T10:58:50.546Z,81.90
2018-12-23T11:01:19.231Z,81.60
2018-12-23T11:03:48.055Z,82.00
2018-12-23T11:06:16.842Z,81.50
2018-12-23T11:08:45.506Z,80.70
2018-12-23T11:11:14.240Z,80.70
2018-12-23T11:13:42.970Z,80.40
2018-12-23T11:16:11.696Z,79.80
2018-12-23T11:18:40.361Z,79.10
2018-12-23T11:21:09.113Z,79.00
2018-12-23T11:23:37.758Z,78.30
2018-12-23T11:26:06.485Z,77.80
2018-12-23T11:28:35.496Z,78.10
2018-12-23T11:31:04.142Z,78.30
2018-12-23T11:33:32.806Z,77.70
2018-12-23T11:36:01.469Z,76.90
2018-12-23T11:38:35.540Z,78.00
2018-12-23T11:41:02.069Z,77.00
2018-12-23T11:43:30.784Z,77.20
2018-12-23T11:45:59.670Z,77.10
2018-12-23T11:48:28.341Z,77.00
2018-12-23T11:50:57.098Z,76.10
2018-12-23T11:53:25.691Z,76.80
2018-12-23T11:55:54.364Z,77.00
2018-12-23T11:58:22.982Z,77.00
2018-12-23T12:00:53.233Z,77.90
2018-12-23T12:03:21.998Z,76.50
2018-12-23T12:05:51.156Z,76.20
2018-12-23T12:08:19.975Z,75.60
2018-12-23T12:11:10.150Z,75.00
2018-12-23T12:13:38.786Z,75.10
2018-12-23T12:16:07.440Z,74.90
2018-12-23T12:18:36.137Z,75.20
2018-12-23T12:21:04.806Z,75.60
2018-12-23T12:23:33.478Z,74.80
2018-12-23T12:26:02.149Z,75.20
2018-12-23T12:28:30.846Z,75.60
2018-12-23T12:30:59.523Z,76.30
2018-12-23T12:33:28.196Z,76.50
2018-12-23T12:35:56.869Z,76.90
2018-12-23T12:38:25.503Z,77.40
2018-12-23T12:40:54.162Z,78.60
2018-12-23T12:43:22.814Z,79.40
2018-12-23T12:45:51.484Z,80.20
2018-12-23T12:48:20.143Z,80.40
2018-12-23T12:50:48.753Z,80.70
2018-12-23T12:53:17.451Z,81.20
2018-12-23T12:55:46.164Z,81.40
2018-12-23T12:58:14.854Z,82.10
2018-12-23T13:00:43.474Z,82.10
2018-12-23T13:03:12.175Z,82.40
2018-12-23T13:05:40.792Z,82.60
2018-12-23T13:08:09.530Z,82.70
2018-12-23T13:10:38.280Z,82.90
2018-12-23T13:13:06.983Z,82.80
2018-12-23T13:15:35.636Z,83.10
2018-12-23T13:18:04.430Z,82.90
2018-12-23T13:20:33.077Z,82.60
2018-12-23T13:23:01.802Z,81.80
2018-12-23T13:25:30.440Z,81.80
2018-12-23T13:27:59.493Z,81.50
2018-12-23T13:30:28.164Z,81.70
2018-12-23T13:32:56.801Z,80.80
2018-12-23T13:35:25.579Z,81.20
2018-12-23T13:37:54.665Z,81.60
2018-12-23T13:40:34.362Z,81.50
2018-12-23T13:43:12.902Z,81.00
2018-12-23T13:46:14.178Z,82.30
2018-12-23T13:49:41.166Z,82.30
2018-12-23T13:52:20.657Z,81.90
2018-12-23T13:55:03.197Z,82.30
2018-12-23T13:57:40.135Z,81.90
2018-12-23T14:00:19.977Z,82.10
2018-12-23T14:03:59.891Z,81.60
2018-12-23T14:07:05.133Z,80.40
2018-12-23T14:11:48.234Z,79.60
2018-12-23T14:14:16.866Z,79.80
2018-12-23T14:16:45.617Z,79.60
2018-12-23T14:19:14.368Z,81.00
2018-12-23T14:21:43.228Z,80.80
2018-12-23T14:24:11.939Z,81.80
2018-12-23T14:26:40.711Z,81.40
2018-12-23T14:29:09.306Z,81.60
2018-12-23T14:31:37.973Z,82.20
2018-12-23T14:34:06.586Z,81.60
2018-12-23T14:36:35.193Z,82.50
2018-12-23T14:39:06.621Z,82.70
2018-12-23T14:41:35.236Z,84.20
2018-12-23T14:44:03.900Z,84.70
2018-12-23T14:46:32.539Z,86.00
2018-12-23T14:49:38.660Z,86.80
2018-12-23T14:52:08.562Z,89.60
2018-12-23T14:54:38.457Z,90.50
2018-12-23T14:57:08.383Z,91.30
2018-12-23T14:59:38.264Z,91.90
2018-12-23T15:02:08.190Z,92.70
2018-12-23T15:04:38.114Z,93.40
2018-12-23T15:07:07.997Z,93.30
2018-12-23T15:09:37.890Z,93.80
2018-12-23T15:12:07.818Z,93.90
2018-12-23T15:14:37.740Z,94.30
2018-12-23T15:17:07.635Z,94.80
2018-12-23T15:19:37.657Z,94.90
2018-12-23T15:22:07.575Z,95.40
2018-12-23T15:24:37.485Z,95.70
2018-12-23T15:27:07.389Z,95.90
2018-12-23T15:29:37.308Z,96.20
2018-12-23T15:32:07.277Z,96.30
2018-12-23T15:34:37.248Z,96.70
2018-12-23T15:37:07.174Z,96.70
2018-12-23T15:39:42.601Z,96.70
2018-12-23T15:42:08.715Z,97.20
2018-12-23T15:44:38.667Z,97.40
2018-12-23T15:47:08.618Z,97.50
2018-12-23T15:49:38.579Z,97.50
2018-12-23T15:52:08.498Z,97.70
2018-12-23T15:54:46.054Z,98.00
2018-12-23T15:57:09.971Z,98.20
2018-12-23T15:59:39.860Z,98.20
2018-12-23T16:02:10.007Z,98.40
2018-12-23T16:04:39.920Z,98.30
2018-12-23T16:07:09.819Z,98.50
2018-12-23T16:09:39.777Z,98.50
2018-12-23T16:12:10.571Z,98.50
2018-12-23T16:14:40.461Z,98.50
2018-12-23T16:17:10.414Z,98.30
2018-12-23T16:19:40.329Z,98.40
2018-12-23T16:22:10.233Z,98.60
2018-12-23T16:24:40.189Z,98.70
2018-12-23T16:27:10.143Z,98.60
2018-12-23T16:29:40.058Z,98.70
2018-12-23T16:32:10.016Z,99.10
2018-12-23T16:34:39.909Z,98.80
2018-12-23T16:37:09.843Z,98.80
2018-12-23T16:39:39.901Z,98.90
2018-12-23T16:42:09.781Z,99.00
2018-12-23T16:44:39.667Z,99.00
2018-12-23T16:47:09.581Z,99.10
2018-12-23T16:49:40.952Z,99.10
2018-12-23T16:52:10.975Z,99.40
2018-12-23T16:54:40.912Z,99.30
2018-12-23T16:57:10.804Z,99.30
2018-12-23T16:59:40.771Z,99.40
2018-12-23T17:02:10.685Z,99.30
2018-12-23T17:04:40.649Z,99.40
2018-12-23T17:07:10.564Z,99.50
2018-12-23T17:09:40.511Z,99.50
2018-12-23T17:12:10.456Z,99.50
2018-12-23T17:14:40.441Z,99.80
2018-12-23T17:17:10.387Z,99.90
2018-12-23T17:19:40.299Z,99.90
2018-12-23T17:22:10.312Z,99.90
2018-12-23T17:24:40.304Z,99.90
2018-12-23T17:27:10.208Z,99.90
2018-12-23T17:29:40.260Z,99.90
2018-12-23T17:32:10.521Z,99.90
2018-12-23T17:34:40.456Z,99.90
2018-12-23T17:37:10.482Z,99.90
2018-12-23T17:39:40.399Z,99.90
2018-12-23T17:42:10.345Z,99.90
2018-12-23T17:44:40.327Z,99.90
2018-12-23T17:47:10.265Z,99.90
2018-12-23T17:49:40.184Z,99.90
2018-12-23T17:52:10.255Z,99.90
2018-12-23T17:54:40.179Z,99.90
2018-12-23T17:57:10.109Z,99.90
2018-12-23T17:59:40.111Z,99.90
2018-12-23T18:02:10.011Z,99.90
2018-12-23T18:04:39.892Z,99.90
2018-12-23T18:07:09.841Z,99.90
2018-12-23T18:09:39.906Z,99.90
2018-12-23T18:12:09.964Z,99.90
2018-12-23T18:14:39.944Z,99.90
2018-12-23T18:17:09.980Z,99.90
2018-12-23T18:19:39.861Z,99.90
2018-12-23T18:22:09.786Z,99.90
2018-12-23T18:24:39.687Z,99.90
2018-12-23T18:27:09.569Z,99.90
2018-12-23T18:29:39.507Z,99.90
2018-12-23T18:32:09.404Z,99.90
2018-12-23T18:34:39.278Z,99.90
2018-12-23T18:37:09.591Z,99.90
2018-12-23T18:39:39.474Z,99.90
2018-12-23T18:42:09.361Z,99.90
2018-12-23T18:44:39.301Z,99.90
2018-12-23T18:47:09.187Z,99.90
2018-12-23T18:49:39.090Z,99.90
2018-12-23T18:52:09.116Z,99.90
2018-12-23T18:54:39.091Z,99.90
2018-12-23T18:57:10.692Z,99.90
2018-12-23T18:59:44.844Z,99.90
2018-12-23T19:02:36.659Z,99.90
2018-12-23T19:05:06.764Z,99.90
2018-12-23T19:07:36.698Z,99.90
2018-12-23T19:10:30.623Z,99.90
2018-12-23T19:13:53.401Z,99.90
2018-12-23T19:16:49.296Z,99.90
2018-12-23T19:19:39.454Z,99.90
2018-12-23T19:22:46.078Z,99.90
2018-12-23T19:25:56.194Z,99.90
2018-12-23T19:29:19.260Z,99.90
2018-12-23T19:32:21.655Z,99.90
2018-12-23T19:35:30.347Z,99.90
2018-12-23T19:38:30.972Z,99.90
2018-12-23T19:41:58.276Z,99.90
2018-12-23T19:45:05.876Z,99.90
2018-12-23T19:48:27.132Z,99.90
2018-12-23T19:51:34.507Z,99.90
2018-12-23T19:55:04.150Z,99.90
2018-12-23T19:57:57.872Z,99.90
2018-12-23T20:01:02.980Z,99.90
2018-12-23T20:04:08.682Z,99.90
2018-12-23T20:07:37.517Z,99.90
2018-12-23T20:10:45.900Z,99.90
2018-12-23T20:14:01.338Z,99.90
2018-12-23T20:17:04.446Z,99.90
2018-12-23T20:20:15.357Z,99.90
2018-12-23T20:23:24.952Z,99.90
2018-12-23T20:26:37.584Z,99.90
2018-12-23T20:29:30.906Z,99.90
2018-12-23T20:32:28.770Z,99.90
2018-12-23T20:35:54.520Z,99.90
2018-12-23T20:39:04.499Z,99.90
2018-12-23T20:42:01.384Z,99.90
2018-12-23T20:45:03.957Z,99.90
2018-12-23T20:47:50.686Z,99.90
2018-12-23T20:50:47.660Z,99.90
2018-12-23T20:53:55.456Z,99.90
2018-12-23T20:57:20.080Z,99.90
2018-12-23T21:00:28.913Z,99.90
2018-12-23T21:03:22.241Z,99.90
2018-12-23T21:06:48.402Z,99.90
2018-12-23T21:09:59.249Z,99.90
2018-12-23T21:13:19.117Z,99.90
2018-12-23T21:16:25.883Z,99.90
2018-12-23T21:19:41.687Z,99.90
2018-12-23T21:22:39.164Z,99.90
2018-12-23T21:26:13.959Z,99.90
2018-12-23T21:29:20.984Z,99.90
2018-12-23T21:32:42.004Z,99.90
2018-12-23T21:35:47.746Z,99.90
2018-12-23T21:39:02.149Z,99.90
2018-12-23T21:41:49.498Z,99.90
2018-12-23T21:44:48.259Z,99.90
2018-12-23T21:47:53.871Z,99.90
2018-12-23T21:50:51.133Z,99.90
2018-12-23T21:54:02.127Z,99.90
2018-12-23T21:57:21.108Z,99.90
2018-12-23T22:00:37.772Z,99.90
2018-12-23T22:03:38.253Z,99.90
2018-12-23T22:06:27.902Z,99.90
2018-12-23T22:09:41.004Z,99.90
2018-12-23T22:12:51.929Z,99.90
2018-12-23T22:15:21.946Z,99.90
2018-12-23T22:17:52.034Z,99.90
2018-12-23T22:20:22.093Z,99.90
2018-12-23T22:22:52.174Z,99.90
2018-12-23T22:25:22.228Z,99.90
2018-12-23T22:27:52.477Z,99.90
2018-12-23T22:30:22.489Z,99.90
2018-12-23T22:32:52.575Z,99.90
2018-12-23T22:35:22.702Z,99.90
2018-12-23T22:37:52.821Z,99.90
2018-12-23T22:40:24.532Z,99.90
2018-12-23T22:42:54.667Z,99.90
2018-12-23T22:45:24.717Z,99.90
2018-12-23T22:47:56.034Z,99.90
2018-12-23T22:50:26.414Z,99.90
2018-12-23T22:52:56.549Z,99.90
2018-12-23T22:55:26.716Z,99.90
2018-12-23T22:57:57.966Z,99.90
2018-12-23T23:00:33.039Z,99.90
2018-12-23T23:03:09.012Z,99.90
2018-12-23T23:05:34.838Z,99.90
2018-12-23T23:08:04.868Z,99.90
2018-12-23T23:10:34.975Z,99.90
2018-12-23T23:13:05.144Z,99.90
2018-12-23T23:15:35.191Z,99.90
2018-12-23T23:18:08.102Z,99.90
2018-12-23T23:20:38.250Z,99.80
2018-12-23T23:23:08.321Z,99.90
2018-12-23T23:25:38.366Z,99.90
2018-12-23T23:28:08.458Z,99.90
2018-12-23T23:30:38.480Z,99.90
2018-12-23T23:33:08.741Z,99.90
2018-12-23T23:35:38.688Z,99.90
2018-12-23T23:38:08.537Z,99.90
2018-12-23T23:40:38.478Z,99.90
2018-12-23T23:43:08.374Z,99.90
2018-12-23T23:45:38.330Z,99.90
2018-12-23T23:48:08.177Z,99.90
2018-12-23T23:50:38.066Z,99.90
2018-12-23T23:53:07.974Z,99.90
2018-12-23T23:55:37.907Z,99.40
2018-12-23T23:58:07.777Z,99.10
